East Warners (211) Station Data

Red Flag Warning: No
Fire Weather Zone: 258
SDGE Region: Ramona
Lat/Lon: 33.227/-116.621

Observations

Time Wind Speed/Gust Temp(F) RH Fuel Moist Fuel Temp(F) Dewpt(F) Tmax(F) Tmin(F) Accum Precip 10-min Precip SL Press(mb)
5/24 8:30am 271 4 G 7 64° 50% - - 45° 66.2° 57.5° - - -
5/24 8:20am 278 5 G 8 63° 53% - - 46° 66.2° 57.5° - - -
5/24 8:10am 293 5 G 7 64° 51% - - 45° 66.2° 57.5° - - -
5/24 8:00am 277 3 G 5 64° 48% - - 44° 66.2° 57.5° - - -
5/24 7:50am 287 4 G 5 64° 48% - - 44° 66.2° 57.5° - - -
5/24 7:40am 314 2 G 3 63° 48% - - 43° 66.2° 57.5° - - -
5/24 7:30am 332 2 G 3 63° 49% - - 44° 66.2° 57.5° - - -
5/24 7:20am 325 1 G 2 64° 47% - - 44° 66.2° 57.5° - - -
5/24 7:10am 87 0 G 2 65° 47% - - 44° 66.2° 57.5° - - -
5/24 7:00am 90 3 G 4 63° 50% - - 44° 66.2° 57.5° - - -
5/24 6:50am 98 4 G 5 61° 53% - - 44° 66.2° 57.5° - - -
5/24 6:40am 96 4 G 5 59° 56% - - 44° 66.2° 57.5° - - -
5/24 6:30am 114 2 G 3 58° 58% - - 44° 66.2° 57.5° - - -
5/24 6:20am 252 2 G 3 59° 56% - - 43° 66.2° 57.5° - - -
5/24 6:10am 284 2 G 3 60° 52% - - 43° 66.2° 58.2° - - -
5/24 6:00am 147 2 G 3 60° 53% - - 43° 66.2° 58.2° - - -
5/24 5:50am 171 1 G 2 59° 54% - - 43° 66.2° 58.2° - - -
5/24 5:40am 204 1 G 1 59° 55% - - 43° 66.2° 58.2° - - -
5/24 5:30am 221 1 G 2 59° 54% - - 42° 66.2° 58.4° - - -
5/24 5:20am 294 0 G 1 60° 52% - - 42° 66.2° 59.2° - - -
5/24 5:10am 312 0 G 2 61° 50% - - 42° 66.2° 59.6° - - -
5/24 5:00am 253 1 G 2 62° 48% - - 42° 66.2° 59.6° - - -
5/24 4:50am 230 2 G 3 62° 48% - - 42° 66.2° 59.6° - - -
5/24 4:40am 213 1 G 3 61° 52% - - 44° 66.2° 59.6° - - -
5/24 4:30am 195 1 G 4 62° 52% - - 44° 66.2° 59.6° - - -
5/24 4:20am 154 3 G 5 61° 54% - - 44° 66.2° 59.6° - - -
5/24 4:10am 129 2 G 4 61° 55% - - 44° 66.2° 59.6° - - -
5/24 4:00am 112 3 G 4 60° 56% - - 44° 66.2° 59.6° - - -
5/24 3:50am 106 3 G 4 60° 57% - - 45° 66.2° 59.6° - - -
5/24 3:40am 107 2 G 4 60° 57% - - 45° 66.2° 59.9° - - -
5/24 3:30am 105 1 G 2 60° 57% - - 45° 66.2° 59.9° - - -
5/24 3:20am 101 1 G 2 61° 56% - - 45° 66.2° 60.3° - - -
5/24 3:10am 11 0 G 1 62° 53% - - 45° 66.2° 60.5° - - -
5/24 3:00am 180 1 G 3 63° 52% - - 45° 66.2° 60.5° - - -
5/24 2:50am 118 3 G 4 62° 54% - - 45° 66.2° 60.5° - - -
5/24 2:40am 101 4 G 5 61° 56% - - 45° 66.2° 60.5° - - -
5/24 2:30am 56 1 G 3 62° 53% - - 45° 66.2° 61.4° - - -
5/24 2:20am 258 1 G 2 65° 49% - - 45° 66.2° 63° - - -
5/24 2:10am 124 0 G 1 66° 47% - - 45° 66.2° 63° - - -
5/24 2:00am 123 2 G 3 65° 48% - - 45° 66.2° 63° - - -
5/24 1:50am 105 4 G 4 64° 51% - - 46° 66° 63° - - -
5/24 1:40am 99 3 G 4 64° 52% - - 46° 66° 63.2° - - -
5/24 1:30am 70 1 G 2 64° 51% - - 46° 66° 63.6° - - -
5/24 1:20am 266 0 G 1 65° 50% - - 46° 66° 64.3° - - -
5/24 1:10am 247 0 G 1 65° 49% - - 45° 66° 64.4° - - -
5/24 1:00am 133 2 G 3 65° 50% - - 46° 66° 64.4° - - -
5/24 12:50am 104 3 G 4 65° 50% - - 46° 66° 64.4° - - -
5/24 12:40am 116 4 G 5 65° 51% - - 46° 66° 64.5° - - -
5/24 12:30am 98 4 G 5 65° 51% - - 46° 66° 64.5° - - -
5/24 12:20am 97 3 G 4 65° 52% - - 47° 66° 64.8° - - -
5/24 12:10am 106 1 G 3 65° 51% - - 47° 66° 65° - - -
5/24 12:00am 211 0 G 1 66° 51% - - 47° 93.7° 60.3° - - -
5/23 11:50pm 278 0 G 2 67° 50% - - 47° 93.7° 60.3° - - -
5/23 11:40pm 83 0 G 1 68° 48% - - 47° 93.7° 60.3° - - -
5/23 11:30pm 104 2 G 3 68° 48% - - 48° 93.7° 60.3° - - -
5/23 11:20pm 103 3 G 4 68° 49% - - 48° 93.7° 60.3° - - -
5/23 11:10pm 108 4 G 5 67° 50% - - 48° 93.7° 60.3° - - -
5/23 11:00pm 102 3 G 4 68° 51% - - 49° 93.7° 60.3° - - -
5/23 10:50pm 108 2 G 3 68° 50% - - 49° 93.7° 60.3° - - -
5/23 10:40pm 0 0 G 0 68° 50% - - 49° 93.7° 60.3° - - -
5/23 10:30pm 0 0 G 0 69° 49% - - 49° 93.7° 60.3° - - -
5/23 10:20pm 123 1 G 2 69° 49% - - 49° 93.7° 60.3° - - -
5/23 10:10pm 57 2 G 3 70° 48% - - 49° 93.7° 60.3° - - -
5/23 10:00pm 290 0 G 1 70° 46% - - 49° 93.7° 60.3° - - -
5/23 9:50pm 194 1 G 2 71° 46% - - 49° 93.7° 60.3° - - -
5/23 9:40pm 131 1 G 1 71° 46% - - 49° 93.7° 60.3° - - -
5/23 9:30pm 288 0 G 1 71° 45% - - 49° 93.7° 60.3° - - -
5/23 9:20pm 225 1 G 3 72° 45% - - 49° 93.7° 60.3° - - -
5/23 9:10pm 235 2 G 3 71° 45% - - 49° 93.7° 60.3° - - -
5/23 9:00pm 275 1 G 3 72° 44% - - 49° 93.7° 60.3° - - -
5/23 8:50pm 203 2 G 3 72° 44% - - 49° 93.7° 60.3° - - -
5/23 8:40pm 306 0 G 2 72° 44% - - 49° 93.7° 60.3° - - -
5/23 8:30pm 65 1 G 3 72° 43% - - 48° 93.7° 60.3° - - -
5/23 8:20pm 51 1 G 3 73° 42% - - 48° 93.7° 60.3° - - -
5/23 8:10pm 324 2 G 3 73° 41% - - 48° 93.7° 60.3° - - -
5/23 8:00pm 109 2 G 3 74° 40% - - 48° 93.7° 60.3° - - -
5/23 7:50pm 303 4 G 8 76° 38% - - 48° 93.7° 60.3° - - -
5/23 7:40pm 306 7 G 11 76° 38% - - 49° 93.7° 60.3° - - -
5/23 7:30pm 307 9 G 11 78° 36% - - 49° 93.7° 60.3° - - -
5/23 7:20pm 239 7 G 10 81° 27% - - 44° 93.7° 60.3° - - -
5/23 7:10pm 242 8 G 11 82° 27% - - 44° 93.7° 60.3° - - -
5/23 7:00pm 252 8 G 12 82° 24% - - 42° 93.7° 60.3° - - -
5/23 6:50pm 258 8 G 11 83° 26% - - 45° 93.7° 60.3° - - -
5/23 6:40pm 268 7 G 11 83° 27% - - 45° 93.7° 60.3° - - -
5/23 6:30pm 266 8 G 11 83° 27% - - 46° 93.7° 60.3° - - -
5/23 6:20pm 262 10 G 14 83° 28% - - 46° 93.7° 60.3° - - -
5/23 6:10pm 270 9 G 14 83° 26% - - 44° 93.7° 60.3° - - -
5/23 6:00pm 244 12 G 18 83° 26% - - 44° 93.7° 60.3° - - -
5/23 5:50pm 249 12 G 17 84° 25% - - 44° 93.7° 60.3° - - -
5/23 5:40pm 267 9 G 16 83° 27% - - 46° 93.7° 60.3° - - -
5/23 5:30pm 272 11 G 16 83° 27% - - 45° 93.7° 60.3° - - -
5/23 5:20pm 267 11 G 18 84° 25% - - 45° 93.7° 60.3° - - -
5/23 5:10pm 250 12 G 19 84° 25% - - 45° 93.7° 60.3° - - -
5/23 5:00pm 247 12 G 19 84° 27% - - 46° 93.7° 60.3° - - -
5/23 4:50pm 246 14 G 20 84° 27% - - 47° 93.7° 60.3° - - -
5/23 4:40pm 260 13 G 21 84° 29% - - 49° 93.7° 60.3° - - -
5/23 4:30pm 258 12 G 21 84° 28% - - 48° 93.7° 60.3° - - -
5/23 4:20pm 251 12 G 18 84° 32% - - 51° 93.7° 60.3° - - -
5/23 4:10pm 242 14 G 23 84° 33% - - 52° 93.7° 60.3° - - -
5/23 4:00pm 228 16 G 21 84° 32% - - 51° 93.7° 60.3° - - -
5/23 3:50pm 238 17 G 27 85° 33% - - 52° 93.7° 60.3° - - -
5/23 3:40pm 248 19 G 25 85° 35% - - 54° 93.7° 60.3° - - -
5/23 3:30pm 254 20 G 27 86° 29% - - 50° 93.7° 60.3° - - -
5/23 3:20pm 232 16 G 26 87° 25% - - 47° 93.7° 60.3° - - -
5/23 3:10pm 222 15 G 22 88° 20% - - 42° 93.7° 60.3° - - -
5/23 3:00pm 232 14 G 22 89° 17% - - 39° 93.7° 60.3° - - -
5/23 2:50pm 258 13 G 20 90° 20% - - 43° 93.7° 60.3° - - -
5/23 2:40pm 256 13 G 21 90° 17% - - 40° 93.7° 60.3° - - -
5/23 2:30pm 263 14 G 22 91° 15% - - 37° 93.7° 60.3° - - -
5/23 2:20pm 261 15 G 24 90° 16% - - 38° 93.7° 60.3° - - -
5/23 2:10pm 248 13 G 20 91° 15% - - 38° 93.7° 60.3° - - -
5/23 2:00pm 228 12 G 20 90° 16% - - 38° 93.7° 60.3° - - -
5/23 1:50pm 237 13 G 18 90° 17% - - 39° 93.7° 60.3° - - -
5/23 1:40pm 243 14 G 20 91° 16% - - 38° 93.7° 60.3° - - -
5/23 1:30pm 239 10 G 20 91° 16% - - 38° 93.7° 60.3° - - -
5/23 1:20pm 203 5 G 12 91° 15% - - 36° 93.7° 60.3° - - -
5/23 1:10pm 231 4 G 14 92° 12% - - 31° 93.7° 60.3° - - -
5/23 1:00pm 135 8 G 13 90° 11% - - 29° 93° 60.3° - - -
5/23 12:50pm 127 9 G 18 91° 11% - - 28° 93° 60.3° - - -
5/23 12:40pm 149 7 G 16 90° 11% - - 28° 93° 60.3° - - -
5/23 12:30pm 105 9 G 18 91° 10% - - 27° 93° 60.3° - - -
5/23 12:20pm 150 8 G 18 91° 11% - - 28° 93° 60.3° - - -
5/23 12:10pm 111 10 G 19 91° 10% - - 27° 91.3° 60.3° - - -
5/23 12:00pm 95 9 G 16 90° 10% - - 27° 91° 60.3° - - -
5/23 11:50am 114 11 G 17 89° 10% - - 25° 90.8° 60.3° - - -
5/23 11:40am 132 12 G 19 89° 10% - - 25° 90.8° 60.3° - - -
5/23 11:30am 127 11 G 19 89° 11% - - 27° 90.7° 60.3° - - -
5/23 11:20am 140 10 G 16 90° 11% - - 28° 90.7° 60.3° - - -
5/23 11:10am 145 7 G 13 90° 11% - - 29° 90.7° 60.3° - - -
5/23 11:00am 268 5 G 10 88° 15% - - 35° 89.5° 60.3° - - -
5/23 10:50am 304 8 G 12 87° 15% - - 34° 88.1° 60.3° - - -
5/23 10:40am 306 10 G 14 86° 17% - - 36° 87.1° 60.3° - - -
5/23 10:30am 303 11 G 13 85° 20% - - 40° 86.2° 60.3° - - -
5/23 10:20am 301 10 G 13 84° 23% - - 42° 84.8° 60.3° - - -
5/23 10:10am 292 8 G 12 82° 24% - - 42° 83.2° 60.3° - - -
5/23 10:00am 293 8 G 11 82° 23% - - 41° 82.3° 60.3° - - -
5/23 9:50am 293 7 G 10 81° 25% - - 42° 81.6° 60.3° - - -
5/23 9:40am 287 6 G 9 80° 28% - - 44° 80.8° 60.3° - - -
5/23 9:30am 281 5 G 8 79° 30% - - 45° 80.3° 60.3° - - -
5/23 9:20am 281 3 G 5 78° 33% - - 46° 78.9° 60.3° - - -
5/23 9:10am 322 2 G 3 76° 35% - - 46° 76.7° 60.3° - - -
5/23 9:00am 290 2 G 4 73° 38% - - 46° 75.2° 60.3° - - -
5/23 8:50am 301 1 G 2 71° 41% - - 46° 71.8° 60.3° - - -
5/23 8:40am 304 2 G 3 69° 43% - - 46° 70.2° 60.3° - - -
5/23 8:30am 305 3 G 4 68° 44% - - 46° 69.8° 60.3° - - -
5/23 8:20am 280 3 G 4 69° 43% - - 46° 69.8° 60.3° - - -
5/23 8:10am 289 2 G 4 69° 40% - - 44° 69.8° 60.3° - - -
5/23 8:00am 317 1 G 2 69° 39% - - 43° 69.7° 60.3° - - -
5/23 7:50am 335 1 G 2 68° 40% - - 43° 69.5° 60.3° - - -
5/23 7:40am 303 1 G 3 67° 41% - - 43° 69.5° 60.3° - - -
5/23 7:30am 5 2 G 4 68° 40% - - 43° 69.5° 60.3° - - -
5/23 7:20am 99 1 G 3 68° 43% - - 45° 69.1° 60.3° - - -
5/23 7:10am 77 3 G 5 66° 46% - - 45° 68.1° 60.3° - - -
5/23 7:00am 106 2 G 3 64° 51% - - 45° 68.1° 60.3° - - -
5/23 6:50am 97 2 G 3 63° 52% - - 45° 68.1° 60.3° - - -
5/23 6:40am 108 1 G 3 64° 48% - - 44° 68.1° 60.3° - - -
5/23 6:30am 0 0 G 0 63° 47% - - 43° 68.1° 60.3° - - -
5/23 6:20am 107 1 G 2 62° 50% - - 43° 68.1° 60.3° - - -
5/23 6:10am 88 2 G 3 61° 52% - - 43° 68.1° 60.3° - - -
5/23 6:00am 36 0 G 2 62° 49% - - 43° 68.1° 60.8° - - -